sensor_id;sensor_type;location;lat;lon;timestamp;P1;durP1;ratioP1;P2;durP2;ratioP2
33738;SDS011;20063;51.730;11.110;2023-02-15T00:01:34;4.15;;;3.30;;
33738;SDS011;20063;51.730;11.110;2023-02-15T00:04:01;5.00;;;4.05;;
33738;SDS011;20063;51.730;11.110;2023-02-15T00:06:27;6.53;;;4.28;;
33738;SDS011;20063;51.730;11.110;2023-02-15T00:08:53;5.03;;;4.00;;
33738;SDS011;20063;51.730;11.110;2023-02-15T00:11:19;8.18;;;4.70;;
33738;SDS011;20063;51.730;11.110;2023-02-15T00:14:16;6.18;;;4.05;;
33738;SDS011;20063;51.730;11.110;2023-02-15T00:16:44;5.10;;;3.65;;
33738;SDS011;20063;51.730;11.110;2023-02-15T00:19:11;8.68;;;5.28;;
33738;SDS011;20063;51.730;11.110;2023-02-15T00:21:37;13.95;;;5.22;;
33738;SDS011;20063;51.730;11.110;2023-02-15T00:24:06;7.90;;;4.95;;
33738;SDS011;20063;51.730;11.110;2023-02-15T00:26:34;8.77;;;5.57;;
33738;SDS011;20063;51.730;11.110;2023-02-15T00:29:00;8.38;;;5.85;;
33738;SDS011;20063;51.730;11.110;2023-02-15T00:31:27;8.60;;;5.22;;
33738;SDS011;20063;51.730;11.110;2023-02-15T00:33:55;12.35;;;6.03;;
33738;SDS011;20063;51.730;11.110;2023-02-15T00:36:25;8.02;;;4.60;;
33738;SDS011;20063;51.730;11.110;2023-02-15T00:38:51;9.60;;;5.35;;
33738;SDS011;20063;51.730;11.110;2023-02-15T00:41:16;6.43;;;4.72;;
33738;SDS011;20063;51.730;11.110;2023-02-15T00:43:42;8.00;;;5.65;;
33738;SDS011;20063;51.730;11.110;2023-02-15T00:46:07;6.97;;;4.80;;
33738;SDS011;20063;51.730;11.110;2023-02-15T00:48:33;5.70;;;4.18;;
33738;SDS011;20063;51.730;11.110;2023-02-15T00:50:59;6.25;;;4.47;;
33738;SDS011;20063;51.730;11.110;2023-02-15T00:53:25;6.55;;;4.55;;
33738;SDS011;20063;51.730;11.110;2023-02-15T00:55:51;6.65;;;4.70;;
33738;SDS011;20063;51.730;11.110;2023-02-15T00:58:17;6.70;;;5.07;;
33738;SDS011;20063;51.730;11.110;2023-02-15T01:00:44;8.10;;;3.70;;
33738;SDS011;20063;51.730;11.110;2023-02-15T01:03:11;6.38;;;4.05;;
33738;SDS011;20063;51.730;11.110;2023-02-15T01:05:38;8.85;;;4.47;;
33738;SDS011;20063;51.730;11.110;2023-02-15T01:08:03;5.82;;;4.45;;
33738;SDS011;20063;51.730;11.110;2023-02-15T01:10:29;7.28;;;4.07;;
33738;SDS011;20063;51.730;11.110;2023-02-15T01:12:55;6.45;;;4.10;;
33738;SDS011;20063;51.730;11.110;2023-02-15T01:15:21;6.57;;;4.60;;
33738;SDS011;20063;51.730;11.110;2023-02-15T01:17:48;5.00;;;4.03;;
33738;SDS011;20063;51.730;11.110;2023-02-15T01:20:18;6.30;;;4.38;;
33738;SDS011;20063;51.730;11.110;2023-02-15T01:22:47;7.80;;;4.63;;
33738;SDS011;20063;51.730;11.110;2023-02-15T01:25:14;7.47;;;4.30;;
33738;SDS011;20063;51.730;11.110;2023-02-15T01:27:41;6.32;;;4.78;;
33738;SDS011;20063;51.730;11.110;2023-02-15T01:30:06;6.18;;;4.43;;
33738;SDS011;20063;51.730;11.110;2023-02-15T01:32:33;5.25;;;3.83;;
33738;SDS011;20063;51.730;11.110;2023-02-15T01:35:02;8.02;;;5.03;;
33738;SDS011;20063;51.730;11.110;2023-02-15T01:37:29;5.45;;;3.97;;
33738;SDS011;20063;51.730;11.110;2023-02-15T01:39:56;4.85;;;4.03;;
33738;SDS011;20063;51.730;11.110;2023-02-15T01:42:22;5.38;;;4.25;;
33738;SDS011;20063;51.730;11.110;2023-02-15T01:44:57;6.03;;;4.28;;
33738;SDS011;20063;51.730;11.110;2023-02-15T01:52:34;6.55;;;4.65;;
33738;SDS011;20063;51.730;11.110;2023-02-15T01:55:05;6.60;;;4.93;;
33738;SDS011;20063;51.730;11.110;2023-02-15T01:57:32;9.80;;;4.32;;
33738;SDS011;20063;51.730;11.110;2023-02-15T01:59:59;7.90;;;4.70;;
33738;SDS011;20063;51.730;11.110;2023-02-15T02:02:27;7.68;;;4.63;;
33738;SDS011;20063;51.730;11.110;2023-02-15T02:04:57;7.95;;;4.82;;
33738;SDS011;20063;51.730;11.110;2023-02-15T02:07:28;6.85;;;4.90;;
33738;SDS011;20063;51.730;11.110;2023-02-15T02:09:57;9.13;;;6.13;;
33738;SDS011;20063;51.730;11.110;2023-02-15T02:12:22;7.15;;;4.95;;
33738;SDS011;20063;51.730;11.110;2023-02-15T02:14:50;8.43;;;5.63;;
33738;SDS011;20063;51.730;11.110;2023-02-15T02:17:17;7.93;;;5.25;;
33738;SDS011;20063;51.730;11.110;2023-02-15T02:36:31;7.70;;;4.90;;
33738;SDS011;20063;51.730;11.110;2023-02-15T02:42:01;7.80;;;4.87;;
33738;SDS011;20063;51.730;11.110;2023-02-15T02:47:23;5.72;;;3.63;;
33738;SDS011;20063;51.730;11.110;2023-02-15T02:49:58;8.77;;;3.38;;
33738;SDS011;20063;51.730;11.110;2023-02-15T02:58:44;4.65;;;2.95;;
33738;SDS011;20063;51.730;11.110;2023-02-15T03:01:03;4.50;;;2.97;;
33738;SDS011;20063;51.730;11.110;2023-02-15T03:04:15;3.33;;;2.60;;
33738;SDS011;20063;51.730;11.110;2023-02-15T03:06:48;2.40;;;2.03;;
33738;SDS011;20063;51.730;11.110;2023-02-15T03:09:36;2.20;;;2.00;;
33738;SDS011;20063;51.730;11.110;2023-02-15T03:12:13;3.38;;;2.42;;
33738;SDS011;20063;51.730;11.110;2023-02-15T03:14:44;2.42;;;2.22;;
33738;SDS011;20063;51.730;11.110;2023-02-15T03:17:13;6.65;;;2.85;;
33738;SDS011;20063;51.730;11.110;2023-02-15T03:19:40;3.92;;;1.75;;
33738;SDS011;20063;51.730;11.110;2023-02-15T03:22:14;2.95;;;2.08;;
33738;SDS011;20063;51.730;11.110;2023-02-15T03:27:18;3.45;;;2.55;;
33738;SDS011;20063;51.730;11.110;2023-02-15T03:29:58;2.25;;;2.05;;
33738;SDS011;20063;51.730;11.110;2023-02-15T03:32:27;3.42;;;2.60;;
33738;SDS011;20063;51.730;11.110;2023-02-15T03:34:55;4.63;;;3.13;;
33738;SDS011;20063;51.730;11.110;2023-02-15T03:40:13;7.65;;;5.20;;
33738;SDS011;20063;51.730;11.110;2023-02-15T03:46:24;7.03;;;4.72;;
33738;SDS011;20063;51.730;11.110;2023-02-15T03:49:02;12.60;;;8.27;;
33738;SDS011;20063;51.730;11.110;2023-02-15T03:51:48;12.18;;;8.30;;
33738;SDS011;20063;51.730;11.110;2023-02-15T03:54:24;10.70;;;7.63;;
33738;SDS011;20063;51.730;11.110;2023-02-15T03:57:10;10.55;;;6.85;;
33738;SDS011;20063;51.730;11.110;2023-02-15T03:59:58;11.07;;;7.43;;
33738;SDS011;20063;51.730;11.110;2023-02-15T04:02:46;9.32;;;6.47;;
33738;SDS011;20063;51.730;11.110;2023-02-15T04:05:34;10.38;;;6.43;;
33738;SDS011;20063;51.730;11.110;2023-02-15T04:08:00;10.32;;;5.65;;
33738;SDS011;20063;51.730;11.110;2023-02-15T04:10:26;9.10;;;5.00;;
33738;SDS011;20063;51.730;11.110;2023-02-15T04:13:10;5.60;;;4.32;;
33738;SDS011;20063;51.730;11.110;2023-02-15T04:15:35;6.65;;;4.43;;
33738;SDS011;20063;51.730;11.110;2023-02-15T04:18:19;6.43;;;4.47;;
33738;SDS011;20063;51.730;11.110;2023-02-15T04:20:45;5.35;;;4.03;;
33738;SDS011;20063;51.730;11.110;2023-02-15T04:23:32;5.13;;;3.83;;
33738;SDS011;20063;51.730;11.110;2023-02-15T04:26:16;5.15;;;3.65;;
33738;SDS011;20063;51.730;11.110;2023-02-15T04:28:42;6.30;;;3.90;;
33738;SDS011;20063;51.730;11.110;2023-02-15T04:31:07;5.38;;;3.80;;
33738;SDS011;20063;51.730;11.110;2023-02-15T04:33:33;6.20;;;3.60;;
33738;SDS011;20063;51.730;11.110;2023-02-15T04:36:00;5.13;;;3.15;;
33738;SDS011;20063;51.730;11.110;2023-02-15T04:38:26;8.48;;;3.65;;
33738;SDS011;20063;51.730;11.110;2023-02-15T04:40:52;4.47;;;3.17;;
33738;SDS011;20063;51.730;11.110;2023-02-15T04:43:18;3.58;;;2.70;;
33738;SDS011;20063;51.730;11.110;2023-02-15T04:45:48;3.35;;;2.60;;
33738;SDS011;20063;51.730;11.110;2023-02-15T04:48:15;3.65;;;2.78;;
33738;SDS011;20063;51.730;11.110;2023-02-15T04:50:41;3.60;;;3.10;;
33738;SDS011;20063;51.730;11.110;2023-02-15T04:53:07;5.18;;;3.20;;
33738;SDS011;20063;51.730;11.110;2023-02-15T04:55:33;9.77;;;4.07;;
33738;SDS011;20063;51.730;11.110;2023-02-15T04:57:58;3.35;;;2.75;;
33738;SDS011;20063;51.730;11.110;2023-02-15T05:00:24;3.58;;;2.63;;
33738;SDS011;20063;51.730;11.110;2023-02-15T05:02:49;3.55;;;2.63;;
33738;SDS011;20063;51.730;11.110;2023-02-15T05:05:15;6.10;;;2.70;;
33738;SDS011;20063;51.730;11.110;2023-02-15T05:07:40;3.03;;;2.75;;
33738;SDS011;20063;51.730;11.110;2023-02-15T05:10:06;2.45;;;2.17;;
33738;SDS011;20063;51.730;11.110;2023-02-15T05:12:32;2.63;;;2.42;;
33738;SDS011;20063;51.730;11.110;2023-02-15T05:15:07;2.80;;;2.00;;
33738;SDS011;20063;51.730;11.110;2023-02-15T05:17:35;5.45;;;2.08;;
33738;SDS011;20063;51.730;11.110;2023-02-15T05:20:01;2.35;;;2.15;;
33738;SDS011;20063;51.730;11.110;2023-02-15T05:22:27;5.00;;;2.58;;
33738;SDS011;20063;51.730;11.110;2023-02-15T05:24:53;8.20;;;2.45;;
33738;SDS011;20063;51.730;11.110;2023-02-15T05:27:37;2.47;;;2.20;;
33738;SDS011;20063;51.730;11.110;2023-02-15T05:30:21;2.97;;;2.38;;
33738;SDS011;20063;51.730;11.110;2023-02-15T05:32:46;2.38;;;2.17;;
33738;SDS011;20063;51.730;11.110;2023-02-15T05:35:13;2.30;;;2.10;;
33738;SDS011;20063;51.730;11.110;2023-02-15T05:37:40;3.03;;;2.30;;
33738;SDS011;20063;51.730;11.110;2023-02-15T05:40:06;2.53;;;2.30;;
33738;SDS011;20063;51.730;11.110;2023-02-15T05:42:32;2.50;;;2.30;;
33738;SDS011;20063;51.730;11.110;2023-02-15T05:44:57;6.13;;;2.10;;
33738;SDS011;20063;51.730;11.110;2023-02-15T05:47:23;6.35;;;2.45;;
33738;SDS011;20063;51.730;11.110;2023-02-15T05:49:48;8.57;;;2.22;;
33738;SDS011;20063;51.730;11.110;2023-02-15T05:52:14;3.25;;;2.30;;
33738;SDS011;20063;51.730;11.110;2023-02-15T05:54:40;3.53;;;2.05;;
33738;SDS011;20063;51.730;11.110;2023-02-15T05:57:05;2.58;;;2.38;;
33738;SDS011;20063;51.730;11.110;2023-02-15T05:59:31;3.47;;;2.03;;
33738;SDS011;20063;51.730;11.110;2023-02-15T06:01:56;2.35;;;2.03;;
33738;SDS011;20063;51.730;11.110;2023-02-15T06:04:22;2.28;;;1.90;;
33738;SDS011;20063;51.730;11.110;2023-02-15T06:06:47;2.58;;;2.35;;
33738;SDS011;20063;51.730;11.110;2023-02-15T06:09:13;4.45;;;1.92;;
33738;SDS011;20063;51.730;11.110;2023-02-15T06:11:38;3.13;;;2.30;;
33738;SDS011;20063;51.730;11.110;2023-02-15T06:14:04;5.45;;;2.85;;
33738;SDS011;20063;51.730;11.110;2023-02-15T06:16:29;4.78;;;2.78;;
33738;SDS011;20063;51.730;11.110;2023-02-15T06:18:55;19.77;;;7.03;;
33738;SDS011;20063;51.730;11.110;2023-02-15T06:21:21;25.52;;;8.23;;
33738;SDS011;20063;51.730;11.110;2023-02-15T06:23:46;32.65;;;10.63;;
33738;SDS011;20063;51.730;11.110;2023-02-15T06:26:13;36.20;;;13.07;;
33738;SDS011;20063;51.730;11.110;2023-02-15T06:28:42;40.60;;;12.55;;
33738;SDS011;20063;51.730;11.110;2023-02-15T06:31:07;41.10;;;14.23;;
33738;SDS011;20063;51.730;11.110;2023-02-15T06:33:33;50.70;;;17.08;;
33738;SDS011;20063;51.730;11.110;2023-02-15T06:35:59;41.38;;;15.50;;
33738;SDS011;20063;51.730;11.110;2023-02-15T06:38:24;54.35;;;18.85;;
33738;SDS011;20063;51.730;11.110;2023-02-15T06:40:50;48.20;;;20.45;;
33738;SDS011;20063;51.730;11.110;2023-02-15T06:43:16;61.65;;;26.48;;
33738;SDS011;20063;51.730;11.110;2023-02-15T06:45:41;119.60;;;55.15;;
33738;SDS011;20063;51.730;11.110;2023-02-15T06:48:07;97.03;;;46.80;;
33738;SDS011;20063;51.730;11.110;2023-02-15T06:57:11;38.72;;;21.58;;
33738;SDS011;20063;51.730;11.110;2023-02-15T06:59:36;27.02;;;14.50;;
33738;SDS011;20063;51.730;11.110;2023-02-15T07:02:02;24.23;;;13.50;;
33738;SDS011;20063;51.730;11.110;2023-02-15T07:04:28;15.88;;;10.05;;
33738;SDS011;20063;51.730;11.110;2023-02-15T07:06:54;21.15;;;11.07;;
33738;SDS011;20063;51.730;11.110;2023-02-15T07:09:20;17.13;;;9.75;;
33738;SDS011;20063;51.730;11.110;2023-02-15T07:15:10;17.60;;;9.93;;
33738;SDS011;20063;51.730;11.110;2023-02-15T07:17:37;14.13;;;8.00;;
33738;SDS011;20063;51.730;11.110;2023-02-15T07:20:04;13.93;;;7.78;;
33738;SDS011;20063;51.730;11.110;2023-02-15T07:22:35;11.20;;;7.20;;
33738;SDS011;20063;51.730;11.110;2023-02-15T07:25:02;9.15;;;6.55;;
33738;SDS011;20063;51.730;11.110;2023-02-15T07:27:30;9.63;;;5.85;;
33738;SDS011;20063;51.730;11.110;2023-02-15T07:29:56;9.85;;;6.22;;
33738;SDS011;20063;51.730;11.110;2023-02-15T07:32:21;6.53;;;4.80;;
33738;SDS011;20063;51.730;11.110;2023-02-15T07:34:47;7.57;;;5.68;;
33738;SDS011;20063;51.730;11.110;2023-02-15T07:37:12;3.83;;;3.00;;
33738;SDS011;20063;51.730;11.110;2023-02-15T07:39:38;5.65;;;4.10;;
33738;SDS011;20063;51.730;11.110;2023-02-15T07:42:03;8.05;;;4.15;;
33738;SDS011;20063;51.730;11.110;2023-02-15T07:44:29;4.93;;;3.95;;
33738;SDS011;20063;51.730;11.110;2023-02-15T07:46:55;6.57;;;3.33;;
33738;SDS011;20063;51.730;11.110;2023-02-15T07:49:21;3.75;;;3.00;;
33738;SDS011;20063;51.730;11.110;2023-02-15T07:51:46;6.10;;;3.10;;
33738;SDS011;20063;51.730;11.110;2023-02-15T07:54:12;6.72;;;3.05;;
33738;SDS011;20063;51.730;11.110;2023-02-15T07:56:38;7.05;;;3.95;;
33738;SDS011;20063;51.730;11.110;2023-02-15T07:59:03;3.92;;;2.60;;
33738;SDS011;20063;51.730;11.110;2023-02-15T08:01:33;3.88;;;2.97;;
33738;SDS011;20063;51.730;11.110;2023-02-15T08:04:00;13.90;;;7.40;;
33738;SDS011;20063;51.730;11.110;2023-02-15T08:06:26;16.85;;;7.05;;
33738;SDS011;20063;51.730;11.110;2023-02-15T08:08:56;11.80;;;6.20;;
33738;SDS011;20063;51.730;11.110;2023-02-15T08:11:23;8.95;;;5.18;;
33738;SDS011;20063;51.730;11.110;2023-02-15T08:13:54;8.93;;;5.03;;
33738;SDS011;20063;51.730;11.110;2023-02-15T08:19:19;4.35;;;2.85;;
33738;SDS011;20063;51.730;11.110;2023-02-15T08:22:02;3.85;;;2.65;;
33738;SDS011;20063;51.730;11.110;2023-02-15T08:24:30;2.88;;;2.28;;
33738;SDS011;20063;51.730;11.110;2023-02-15T08:26:58;2.80;;;2.45;;
33738;SDS011;20063;51.730;11.110;2023-02-15T08:29:25;6.78;;;2.80;;
33738;SDS011;20063;51.730;11.110;2023-02-15T08:31:59;2.78;;;2.58;;
33738;SDS011;20063;51.730;11.110;2023-02-15T08:34:31;3.33;;;2.28;;
33738;SDS011;20063;51.730;11.110;2023-02-15T08:36:59;3.00;;;2.22;;
33738;SDS011;20063;51.730;11.110;2023-02-15T08:39:28;3.00;;;2.20;;
33738;SDS011;20063;51.730;11.110;2023-02-15T08:41:54;5.38;;;2.85;;
33738;SDS011;20063;51.730;11.110;2023-02-15T08:44:20;6.90;;;3.50;;
33738;SDS011;20063;51.730;11.110;2023-02-15T08:46:46;4.25;;;2.90;;
33738;SDS011;20063;51.730;11.110;2023-02-15T08:49:17;6.13;;;3.25;;
33738;SDS011;20063;51.730;11.110;2023-02-15T08:51:45;4.85;;;2.70;;
33738;SDS011;20063;51.730;11.110;2023-02-15T08:54:13;8.43;;;4.07;;
33738;SDS011;20063;51.730;11.110;2023-02-15T08:56:41;8.30;;;3.63;;
33738;SDS011;20063;51.730;11.110;2023-02-15T08:59:11;7.38;;;3.28;;
33738;SDS011;20063;51.730;11.110;2023-02-15T09:01:41;5.35;;;3.42;;
33738;SDS011;20063;51.730;11.110;2023-02-15T09:04:07;7.05;;;4.50;;
33738;SDS011;20063;51.730;11.110;2023-02-15T09:06:33;5.70;;;3.63;;
33738;SDS011;20063;51.730;11.110;2023-02-15T09:09:00;13.77;;;4.32;;
33738;SDS011;20063;51.730;11.110;2023-02-15T09:11:29;9.18;;;4.30;;
33738;SDS011;20063;51.730;11.110;2023-02-15T09:13:57;5.25;;;3.25;;
33738;SDS011;20063;51.730;11.110;2023-02-15T09:16:28;4.80;;;3.30;;
33738;SDS011;20063;51.730;11.110;2023-02-15T09:18:56;5.25;;;3.20;;
33738;SDS011;20063;51.730;11.110;2023-02-15T09:21:23;5.65;;;3.28;;
33738;SDS011;20063;51.730;11.110;2023-02-15T09:23:50;5.50;;;3.35;;
33738;SDS011;20063;51.730;11.110;2023-02-15T09:26:21;6.05;;;3.58;;
33738;SDS011;20063;51.730;11.110;2023-02-15T09:28:50;5.32;;;2.80;;
33738;SDS011;20063;51.730;11.110;2023-02-15T09:31:18;3.22;;;2.40;;
33738;SDS011;20063;51.730;11.110;2023-02-15T09:33:46;1.77;;;1.67;;
33738;SDS011;20063;51.730;11.110;2023-02-15T09:36:23;2.35;;;1.85;;
33738;SDS011;20063;51.730;11.110;2023-02-15T09:39:10;8.05;;;5.35;;
33738;SDS011;20063;51.730;11.110;2023-02-15T10:07:22;9.32;;;5.53;;
33738;SDS011;20063;51.730;11.110;2023-02-15T10:26:48;5.30;;;3.78;;
33738;SDS011;20063;51.730;11.110;2023-02-15T10:29:18;6.63;;;4.07;;
33738;SDS011;20063;51.730;11.110;2023-02-15T10:34:40;5.88;;;3.97;;
33738;SDS011;20063;51.730;11.110;2023-02-15T10:42:45;7.18;;;3.38;;
33738;SDS011;20063;51.730;11.110;2023-02-15T10:51:17;4.95;;;3.63;;
33738;SDS011;20063;51.730;11.110;2023-02-15T11:07:35;5.93;;;2.70;;
33738;SDS011;20063;51.730;11.110;2023-02-15T11:12:49;3.97;;;3.08;;
33738;SDS011;20063;51.730;11.110;2023-02-15T11:15:32;3.63;;;3.10;;
33738;SDS011;20063;51.730;11.110;2023-02-15T11:18:05;9.15;;;4.35;;
33738;SDS011;20063;51.730;11.110;2023-02-15T11:20:46;4.60;;;2.85;;
33738;SDS011;20063;51.730;11.110;2023-02-15T11:23:16;4.80;;;2.80;;
33738;SDS011;20063;51.730;11.110;2023-02-15T11:25:44;3.53;;;2.65;;
33738;SDS011;20063;51.730;11.110;2023-02-15T11:28:17;4.50;;;2.88;;
33738;SDS011;20063;51.730;11.110;2023-02-15T11:30:48;5.30;;;2.75;;
33738;SDS011;20063;51.730;11.110;2023-02-15T11:33:19;5.38;;;3.15;;
33738;SDS011;20063;51.730;11.110;2023-02-15T11:35:50;5.97;;;3.28;;
33738;SDS011;20063;51.730;11.110;2023-02-15T11:38:29;5.32;;;2.97;;
33738;SDS011;20063;51.730;11.110;2023-02-15T11:41:18;7.78;;;3.65;;
33738;SDS011;20063;51.730;11.110;2023-02-15T11:46:22;8.90;;;4.18;;
33738;SDS011;20063;51.730;11.110;2023-02-15T11:48:47;7.78;;;4.40;;
33738;SDS011;20063;51.730;11.110;2023-02-15T11:51:14;10.38;;;4.18;;
33738;SDS011;20063;51.730;11.110;2023-02-15T11:53:42;7.57;;;3.50;;
33738;SDS011;20063;51.730;11.110;2023-02-15T11:56:27;5.00;;;2.95;;
33738;SDS011;20063;51.730;11.110;2023-02-15T12:04:07;6.20;;;3.10;;
33738;SDS011;20063;51.730;11.110;2023-02-15T12:06:49;6.25;;;3.10;;
33738;SDS011;20063;51.730;11.110;2023-02-15T12:14:49;6.22;;;2.88;;
33738;SDS011;20063;51.730;11.110;2023-02-15T12:17:18;4.40;;;2.58;;
33738;SDS011;20063;51.730;11.110;2023-02-15T12:19:46;3.45;;;2.30;;
33738;SDS011;20063;51.730;11.110;2023-02-15T12:22:23;4.60;;;2.10;;
33738;SDS011;20063;51.730;11.110;2023-02-15T12:25:02;5.40;;;1.92;;
33738;SDS011;20063;51.730;11.110;2023-02-15T12:27:44;14.20;;;6.53;;
33738;SDS011;20063;51.730;11.110;2023-02-15T12:30:30;10.25;;;4.38;;
33738;SDS011;20063;51.730;11.110;2023-02-15T12:33:13;2.72;;;2.30;;
33738;SDS011;20063;51.730;11.110;2023-02-15T12:35:46;8.88;;;5.30;;
33738;SDS011;20063;51.730;11.110;2023-02-15T12:38:23;2.40;;;1.48;;
33738;SDS011;20063;51.730;11.110;2023-02-15T12:41:01;2.17;;;1.58;;
33738;SDS011;20063;51.730;11.110;2023-02-15T12:43:32;3.25;;;2.10;;
33738;SDS011;20063;51.730;11.110;2023-02-15T12:46:19;7.03;;;4.55;;
33738;SDS011;20063;51.730;11.110;2023-02-15T12:48:46;2.38;;;1.88;;
33738;SDS011;20063;51.730;11.110;2023-02-15T12:51:31;6.80;;;4.38;;
33738;SDS011;20063;51.730;11.110;2023-02-15T12:56:54;15.25;;;10.65;;
33738;SDS011;20063;51.730;11.110;2023-02-15T12:59:22;26.38;;;11.32;;
33738;SDS011;20063;51.730;11.110;2023-02-15T13:01:48;19.67;;;11.20;;
33738;SDS011;20063;51.730;11.110;2023-02-15T13:04:26;16.25;;;10.48;;
33738;SDS011;20063;51.730;11.110;2023-02-15T13:06:57;20.95;;;11.15;;
33738;SDS011;20063;51.730;11.110;2023-02-15T13:12:15;14.45;;;10.30;;
33738;SDS011;20063;51.730;11.110;2023-02-15T13:17:21;16.67;;;10.60;;
33738;SDS011;20063;51.730;11.110;2023-02-15T13:19:54;11.90;;;9.02;;
33738;SDS011;20063;51.730;11.110;2023-02-15T13:22:27;18.17;;;10.13;;
33738;SDS011;20063;51.730;11.110;2023-02-15T13:25:01;11.32;;;8.73;;
33738;SDS011;20063;51.730;11.110;2023-02-15T13:27:35;14.20;;;9.73;;
33738;SDS011;20063;51.730;11.110;2023-02-15T13:30:26;15.35;;;9.15;;
33738;SDS011;20063;51.730;11.110;2023-02-15T13:38:45;13.60;;;8.75;;
33738;SDS011;20063;51.730;11.110;2023-02-15T13:41:16;13.93;;;8.88;;
33738;SDS011;20063;51.730;11.110;2023-02-15T13:44:07;12.48;;;9.23;;
33738;SDS011;20063;51.730;11.110;2023-02-15T13:58:06;13.30;;;9.00;;
33738;SDS011;20063;51.730;11.110;2023-02-15T14:08:29;12.07;;;8.15;;
33738;SDS011;20063;51.730;11.110;2023-02-15T14:11:30;13.30;;;8.13;;
33738;SDS011;20063;51.730;11.110;2023-02-15T14:14:14;19.33;;;10.80;;
33738;SDS011;20063;51.730;11.110;2023-02-15T14:16:54;14.73;;;8.70;;
33738;SDS011;20063;51.730;11.110;2023-02-15T14:19:35;12.63;;;7.97;;
33738;SDS011;20063;51.730;11.110;2023-02-15T14:22:25;14.30;;;9.27;;
33738;SDS011;20063;51.730;11.110;2023-02-15T14:30:09;10.55;;;7.13;;
33738;SDS011;20063;51.730;11.110;2023-02-15T14:32:47;15.07;;;7.97;;
33738;SDS011;20063;51.730;11.110;2023-02-15T14:35:22;14.32;;;7.28;;
33738;SDS011;20063;51.730;11.110;2023-02-15T14:43:49;12.65;;;4.90;;
33738;SDS011;20063;51.730;11.110;2023-02-15T14:49:14;29.53;;;6.90;;
33738;SDS011;20063;51.730;11.110;2023-02-15T14:56:43;9.65;;;5.30;;
33738;SDS011;20063;51.730;11.110;2023-02-15T14:59:17;10.43;;;5.47;;
33738;SDS011;20063;51.730;11.110;2023-02-15T15:01:57;10.70;;;5.93;;
33738;SDS011;20063;51.730;11.110;2023-02-15T15:04:29;13.85;;;7.38;;
33738;SDS011;20063;51.730;11.110;2023-02-15T15:09:37;21.42;;;10.20;;
33738;SDS011;20063;51.730;11.110;2023-02-15T15:14:51;12.38;;;7.30;;
33738;SDS011;20063;51.730;11.110;2023-02-15T15:19:57;9.70;;;6.45;;
33738;SDS011;20063;51.730;11.110;2023-02-15T15:22:23;19.05;;;5.63;;
33738;SDS011;20063;51.730;11.110;2023-02-15T15:24:52;9.95;;;5.85;;
33738;SDS011;20063;51.730;11.110;2023-02-15T15:30:46;10.98;;;6.30;;
33738;SDS011;20063;51.730;11.110;2023-02-15T15:40:42;11.18;;;6.18;;
33738;SDS011;20063;51.730;11.110;2023-02-15T15:46:33;11.10;;;5.40;;
33738;SDS011;20063;51.730;11.110;2023-02-15T15:49:10;10.88;;;4.95;;
33738;SDS011;20063;51.730;11.110;2023-02-15T15:51:40;8.32;;;5.05;;
33738;SDS011;20063;51.730;11.110;2023-02-15T15:54:18;11.55;;;6.38;;
33738;SDS011;20063;51.730;11.110;2023-02-15T15:56:49;8.45;;;5.20;;
33738;SDS011;20063;51.730;11.110;2023-02-15T15:59:32;7.43;;;4.80;;
33738;SDS011;20063;51.730;11.110;2023-02-15T16:02:06;11.80;;;6.30;;
33738;SDS011;20063;51.730;11.110;2023-02-15T16:04:36;7.55;;;5.72;;
33738;SDS011;20063;51.730;11.110;2023-02-15T16:07:20;9.45;;;5.65;;
33738;SDS011;20063;51.730;11.110;2023-02-15T16:12:37;6.50;;;5.35;;
33738;SDS011;20063;51.730;11.110;2023-02-15T16:15:13;7.80;;;5.35;;
33738;SDS011;20063;51.730;11.110;2023-02-15T16:17:52;11.73;;;5.85;;
33738;SDS011;20063;51.730;11.110;2023-02-15T16:20:29;10.68;;;6.13;;
33738;SDS011;20063;51.730;11.110;2023-02-15T16:25:55;6.93;;;5.00;;
33738;SDS011;20063;51.730;11.110;2023-02-15T16:28:30;13.52;;;6.03;;
33738;SDS011;20063;51.730;11.110;2023-02-15T16:31:15;9.13;;;5.97;;
33738;SDS011;20063;51.730;11.110;2023-02-15T16:33:42;12.43;;;6.07;;
33738;SDS011;20063;51.730;11.110;2023-02-15T16:36:10;16.98;;;7.00;;
33738;SDS011;20063;51.730;11.110;2023-02-15T16:41:17;11.10;;;7.03;;
33738;SDS011;20063;51.730;11.110;2023-02-15T16:43:48;11.43;;;8.35;;
33738;SDS011;20063;51.730;11.110;2023-02-15T16:46:16;11.70;;;7.57;;
33738;SDS011;20063;51.730;11.110;2023-02-15T16:48:51;8.63;;;6.72;;
33738;SDS011;20063;51.730;11.110;2023-02-15T16:51:23;10.82;;;6.28;;
33738;SDS011;20063;51.730;11.110;2023-02-15T16:53:51;8.88;;;5.95;;
33738;SDS011;20063;51.730;11.110;2023-02-15T16:56:25;11.43;;;5.32;;
33738;SDS011;20063;51.730;11.110;2023-02-15T16:58:55;9.82;;;6.60;;
33738;SDS011;20063;51.730;11.110;2023-02-15T17:01:24;10.23;;;5.63;;
33738;SDS011;20063;51.730;11.110;2023-02-15T17:04:10;10.57;;;6.95;;
33738;SDS011;20063;51.730;11.110;2023-02-15T17:06:37;14.88;;;6.65;;
33738;SDS011;20063;51.730;11.110;2023-02-15T17:09:12;12.55;;;7.05;;
33738;SDS011;20063;51.730;11.110;2023-02-15T17:11:43;9.90;;;5.60;;
33738;SDS011;20063;51.730;11.110;2023-02-15T17:16:40;10.10;;;6.75;;
33738;SDS011;20063;51.730;11.110;2023-02-15T17:19:18;9.85;;;6.03;;
33738;SDS011;20063;51.730;11.110;2023-02-15T17:21:59;8.68;;;6.20;;
33738;SDS011;20063;51.730;11.110;2023-02-15T17:24:32;9.98;;;5.78;;
33738;SDS011;20063;51.730;11.110;2023-02-15T17:27:02;8.57;;;5.90;;
33738;SDS011;20063;51.730;11.110;2023-02-15T17:29:37;9.30;;;5.28;;
33738;SDS011;20063;51.730;11.110;2023-02-15T17:32:12;5.93;;;4.10;;
33738;SDS011;20063;51.730;11.110;2023-02-15T17:34:42;6.45;;;4.72;;
33738;SDS011;20063;51.730;11.110;2023-02-15T17:37:12;8.50;;;5.45;;
33738;SDS011;20063;51.730;11.110;2023-02-15T17:39:47;8.57;;;5.18;;
33738;SDS011;20063;51.730;11.110;2023-02-15T17:42:13;9.93;;;5.05;;
33738;SDS011;20063;51.730;11.110;2023-02-15T17:44:38;8.57;;;4.70;;
33738;SDS011;20063;51.730;11.110;2023-02-15T17:47:04;10.57;;;5.20;;
33738;SDS011;20063;51.730;11.110;2023-02-15T17:49:30;12.50;;;4.22;;
33738;SDS011;20063;51.730;11.110;2023-02-15T17:52:00;9.13;;;3.83;;
33738;SDS011;20063;51.730;11.110;2023-02-15T17:54:26;6.10;;;3.70;;
33738;SDS011;20063;51.730;11.110;2023-02-15T17:57:27;6.05;;;3.63;;
33738;SDS011;20063;51.730;11.110;2023-02-15T17:59:54;5.68;;;3.75;;
33738;SDS011;20063;51.730;11.110;2023-02-15T18:02:38;5.60;;;4.03;;
33738;SDS011;20063;51.730;11.110;2023-02-15T18:05:22;5.50;;;2.70;;
33738;SDS011;20063;51.730;11.110;2023-02-15T18:08:11;5.90;;;3.42;;
33738;SDS011;20063;51.730;11.110;2023-02-15T18:10:57;4.80;;;3.65;;
33738;SDS011;20063;51.730;11.110;2023-02-15T18:13:42;3.92;;;3.00;;
33738;SDS011;20063;51.730;11.110;2023-02-15T18:16:22;4.25;;;3.10;;
33738;SDS011;20063;51.730;11.110;2023-02-15T18:18:50;5.13;;;3.50;;
33738;SDS011;20063;51.730;11.110;2023-02-15T18:21:16;5.25;;;3.60;;
33738;SDS011;20063;51.730;11.110;2023-02-15T18:23:42;6.07;;;4.35;;
33738;SDS011;20063;51.730;11.110;2023-02-15T18:26:09;4.18;;;3.25;;
33738;SDS011;20063;51.730;11.110;2023-02-15T18:28:41;4.75;;;3.17;;
33738;SDS011;20063;51.730;11.110;2023-02-15T18:31:06;7.78;;;4.07;;
33738;SDS011;20063;51.730;11.110;2023-02-15T18:33:33;5.20;;;3.20;;
33738;SDS011;20063;51.730;11.110;2023-02-15T18:36:02;6.47;;;3.72;;
33738;SDS011;20063;51.730;11.110;2023-02-15T18:38:30;6.07;;;4.00;;
33738;SDS011;20063;51.730;11.110;2023-02-15T18:40:55;5.07;;;3.67;;